createdAt,value
2022-12-18T00:00:53.759Z,44.75
2022-12-18T00:03:21.482Z,45.85
2022-12-18T00:05:49.569Z,46.53
2022-12-18T00:08:17.424Z,47.55
2022-12-18T00:10:45.280Z,47.50
2022-12-18T00:13:13.446Z,45.10
2022-12-18T00:15:41.441Z,44.85
2022-12-18T00:18:11.642Z,39.72
2022-12-18T00:20:41.699Z,46.95
2022-12-18T00:23:09.778Z,51.92
2022-12-18T00:25:38.231Z,53.67
2022-12-18T00:28:06.198Z,54.25
2022-12-18T00:30:33.820Z,62.58
2022-12-18T00:33:01.589Z,49.20
2022-12-18T00:35:30.527Z,40.00
2022-12-18T00:37:58.048Z,44.90
2022-12-18T00:40:25.625Z,75.10
2022-12-18T00:42:58.465Z,53.85
2022-12-18T00:45:27.452Z,48.13
2022-12-18T00:47:55.693Z,49.28
2022-12-18T00:50:24.064Z,45.58
2022-12-18T00:52:53.178Z,38.97
2022-12-18T00:55:21.076Z,46.40
2022-12-18T00:57:48.652Z,36.90
2022-12-18T01:00:17.215Z,46.42
2022-12-18T01:02:44.902Z,38.65
2022-12-18T01:05:13.735Z,33.63
2022-12-18T01:07:41.460Z,41.13
2022-12-18T01:10:13.958Z,40.47
2022-12-18T01:12:41.838Z,39.95
2022-12-18T01:15:11.386Z,33.35
2022-12-18T01:17:39.247Z,33.08
2022-12-18T01:20:07.692Z,38.42
2022-12-18T01:22:35.561Z,41.50
2022-12-18T01:25:03.410Z,34.72
2022-12-18T01:27:35.382Z,40.22
2022-12-18T01:30:02.991Z,40.80
2022-12-18T01:32:31.904Z,41.00
2022-12-18T01:34:59.563Z,42.08
2022-12-18T01:37:27.155Z,40.05
2022-12-18T01:39:55.594Z,42.72
2022-12-18T01:42:23.824Z,45.13
2022-12-18T01:45:08.280Z,39.45
2022-12-18T01:47:38.909Z,42.45
2022-12-18T01:50:10.746Z,50.42
2022-12-18T01:52:38.921Z,69.28
2022-12-18T01:55:08.532Z,55.38
2022-12-18T01:57:36.844Z,56.10
2022-12-18T02:00:13.440Z,47.22
2022-12-18T02:02:41.596Z,42.80
2022-12-18T02:05:10.390Z,43.78
2022-12-18T02:07:45.137Z,38.72
2022-12-18T02:10:18.077Z,37.38
2022-12-18T02:12:51.016Z,36.40
2022-12-18T02:15:25.877Z,37.63
2022-12-18T02:17:57.643Z,37.53
2022-12-18T02:20:30.332Z,34.88
2022-12-18T02:23:06.673Z,34.45
2022-12-18T02:25:58.396Z,34.55
2022-12-18T02:28:28.394Z,33.42
2022-12-18T02:30:58.411Z,36.13
2022-12-18T02:33:28.104Z,40.80
2022-12-18T02:35:56.929Z,34.80
2022-12-18T02:38:25.591Z,30.83
2022-12-18T02:40:53.855Z,36.75
2022-12-18T02:43:22.840Z,32.45
2022-12-18T02:45:53.075Z,35.13
2022-12-18T02:48:22.181Z,40.78
2022-12-18T02:50:56.733Z,39.70
2022-12-18T02:53:28.733Z,39.38
2022-12-18T02:56:08.182Z,37.13
2022-12-18T02:58:43.215Z,27.67
2022-12-18T03:01:14.623Z,37.78
2022-12-18T03:03:44.279Z,30.90
2022-12-18T03:06:16.055Z,32.38
2022-12-18T03:08:45.940Z,29.05
2022-12-18T03:11:16.022Z,32.85
2022-12-18T03:13:47.973Z,38.35
2022-12-18T03:16:21.793Z,34.35
2022-12-18T03:18:52.360Z,33.92
2022-12-18T03:21:23.476Z,35.28
2022-12-18T03:23:52.909Z,34.00
2022-12-18T03:26:23.794Z,37.90
2022-12-18T03:28:56.521Z,39.17
2022-12-18T03:31:25.866Z,33.17
2022-12-18T03:33:55.415Z,32.40
2022-12-18T03:36:23.860Z,29.52
2022-12-18T03:38:52.611Z,30.42
2022-12-18T03:41:24.564Z,33.22
2022-12-18T03:43:57.752Z,27.98
2022-12-18T03:46:29.839Z,28.25
2022-12-18T03:49:02.552Z,26.30
2022-12-18T03:51:37.516Z,23.25
2022-12-18T03:54:07.153Z,29.13
2022-12-18T03:56:38.733Z,34.45
2022-12-18T03:59:08.065Z,29.88
2022-12-18T04:01:40.014Z,32.67
2022-12-18T04:04:09.120Z,34.78
2022-12-18T04:06:37.667Z,30.40
2022-12-18T04:09:06.205Z,34.80
2022-12-18T04:11:34.097Z,33.97
2022-12-18T04:14:04.756Z,27.30
2022-12-18T04:16:36.221Z,30.80
2022-12-18T04:19:03.870Z,51.65
2022-12-18T04:21:31.759Z,38.95
2022-12-18T04:23:59.392Z,34.00
2022-12-18T04:26:27.134Z,33.53
2022-12-18T04:28:54.728Z,35.28
2022-12-18T04:31:22.387Z,34.13
2022-12-18T04:33:51.441Z,34.20
2022-12-18T04:36:19.379Z,38.38
2022-12-18T04:38:46.943Z,30.50
2022-12-18T04:41:14.917Z,78.18
2022-12-18T04:43:43.022Z,88.22
2022-12-18T04:46:11.059Z,45.72
2022-12-18T04:48:39.503Z,39.28
2022-12-18T04:51:09.122Z,39.83
2022-12-18T04:53:37.233Z,38.40
2022-12-18T04:56:10.729Z,33.63
2022-12-18T04:58:38.591Z,36.75
2022-12-18T05:01:06.519Z,36.22
2022-12-18T05:03:34.212Z,35.90
2022-12-18T05:06:02.622Z,45.17
2022-12-18T05:08:31.663Z,114.05
2022-12-18T05:11:03.000Z,58.63
2022-12-18T05:13:31.276Z,76.05
2022-12-18T05:15:58.910Z,71.53
2022-12-18T05:18:27.067Z,53.35
2022-12-18T05:20:55.371Z,35.83
2022-12-18T05:23:24.612Z,40.35
2022-12-18T05:25:55.266Z,41.75
2022-12-18T05:28:23.200Z,30.38
2022-12-18T05:30:52.366Z,36.10
2022-12-18T05:33:20.376Z,33.45
2022-12-18T05:35:52.475Z,35.95
2022-12-18T05:38:20.292Z,32.35
2022-12-18T05:40:49.395Z,35.70
2022-12-18T05:43:21.461Z,28.05
2022-12-18T05:45:49.861Z,26.73
2022-12-18T05:48:17.975Z,32.63
2022-12-18T05:50:46.977Z,33.50
2022-12-18T05:53:15.293Z,30.20
2022-12-18T05:55:43.431Z,30.40
2022-12-18T05:58:12.504Z,30.90
2022-12-18T06:00:43.026Z,32.75
2022-12-18T06:03:11.665Z,28.83
2022-12-18T06:05:41.476Z,32.28
2022-12-18T06:08:09.744Z,29.25
2022-12-18T06:10:37.348Z,31.05
2022-12-18T06:13:05.239Z,35.08
2022-12-18T06:15:33.091Z,25.58
2022-12-18T06:18:03.718Z,34.70
2022-12-18T06:20:33.620Z,37.13
2022-12-18T06:23:01.862Z,31.63
2022-12-18T06:25:29.471Z,39.72
2022-12-18T06:27:57.109Z,43.72
2022-12-18T06:30:24.742Z,35.25
2022-12-18T06:32:56.658Z,35.38
2022-12-18T06:35:26.129Z,41.23
2022-12-18T06:37:53.733Z,41.60
2022-12-18T06:40:21.352Z,58.40
2022-12-18T06:42:49.026Z,43.53
2022-12-18T06:45:16.911Z,46.92
2022-12-18T06:47:44.586Z,43.05
2022-12-18T06:50:12.277Z,53.58
2022-12-18T06:52:41.439Z,54.85
2022-12-18T06:55:10.686Z,46.88
2022-12-18T06:57:38.883Z,42.13
2022-12-18T07:00:08.644Z,33.08
2022-12-18T07:02:36.584Z,42.22
2022-12-18T07:05:10.449Z,36.67
2022-12-18T07:07:39.231Z,22.83
2022-12-18T07:10:08.710Z,36.58
2022-12-18T07:12:36.686Z,37.72
2022-12-18T07:15:04.776Z,35.70
2022-12-18T07:17:32.354Z,30.90
2022-12-18T07:19:59.917Z,33.13
2022-12-18T07:22:27.849Z,57.28
2022-12-18T07:24:56.255Z,42.33
2022-12-18T07:27:25.254Z,36.25
2022-12-18T07:29:52.926Z,30.95
2022-12-18T07:32:20.563Z,72.28
2022-12-18T07:34:48.130Z,30.15
2022-12-18T07:37:15.929Z,37.42
2022-12-18T07:39:43.484Z,37.45
2022-12-18T07:42:28.775Z,44.95
2022-12-18T07:44:57.710Z,49.78
2022-12-18T07:47:26.294Z,43.10
2022-12-18T07:49:54.813Z,45.92
2022-12-18T07:52:25.961Z,40.42
2022-12-18T07:54:54.076Z,47.03
2022-12-18T07:57:49.112Z,40.65
2022-12-18T08:00:12.370Z,39.20
2022-12-18T08:02:40.279Z,35.13
2022-12-18T08:05:08.294Z,38.55
2022-12-18T08:07:35.874Z,44.30
2022-12-18T08:10:03.759Z,75.30
2022-12-18T08:12:31.712Z,59.60
2022-12-18T08:14:59.268Z,53.90
2022-12-18T08:17:28.170Z,51.47
2022-12-18T08:19:55.894Z,44.33
2022-12-18T08:22:23.500Z,58.45
2022-12-18T08:24:51.103Z,39.17
2022-12-18T08:27:29.380Z,38.83
2022-12-18T08:29:57.463Z,42.50
2022-12-18T08:32:25.195Z,33.63
2022-12-18T08:34:54.246Z,37.75
2022-12-18T08:37:21.863Z,38.67
2022-12-18T08:39:49.455Z,33.22
2022-12-18T08:42:34.754Z,33.35
2022-12-18T08:45:02.403Z,35.45
2022-12-18T08:47:30.036Z,35.35
2022-12-18T08:49:59.029Z,34.97
2022-12-18T08:52:26.580Z,30.58
2022-12-18T08:54:54.125Z,39.70
2022-12-18T08:57:21.695Z,31.30
2022-12-18T08:59:49.274Z,38.30
2022-12-18T09:02:16.977Z,30.10
2022-12-18T09:04:46.814Z,30.77
2022-12-18T09:07:15.988Z,39.92
2022-12-18T09:09:43.998Z,32.78
2022-12-18T09:12:11.579Z,28.08
2022-12-18T09:14:39.164Z,28.00
2022-12-18T09:17:06.816Z,28.15
2022-12-18T09:19:34.491Z,31.35
2022-12-18T09:22:02.230Z,31.25
2022-12-18T09:24:31.182Z,35.60
2022-12-18T09:26:58.852Z,39.58
2022-12-18T09:29:26.644Z,55.95
2022-12-18T09:31:54.259Z,53.38
2022-12-18T09:34:22.693Z,66.38
2022-12-18T09:36:50.384Z,55.15
2022-12-18T09:39:18.094Z,54.75
2022-12-18T09:41:54.476Z,52.13
2022-12-18T09:44:25.910Z,50.00
2022-12-18T09:46:59.378Z,53.25
2022-12-18T09:49:29.883Z,51.97
2022-12-18T09:52:01.929Z,56.08
2022-12-18T09:54:35.548Z,57.88
2022-12-18T09:57:04.710Z,51.75
2022-12-18T09:59:35.797Z,54.78
2022-12-18T10:02:17.998Z,50.30
2022-12-18T10:04:45.855Z,41.13
2022-12-18T10:07:17.682Z,44.60
2022-12-18T10:09:51.012Z,43.13
2022-12-18T10:14:53.695Z,40.40
2022-12-18T10:17:25.818Z,35.20
2022-12-18T10:19:57.274Z,40.25
2022-12-18T10:22:37.770Z,35.75
2022-12-18T10:25:09.269Z,26.35
2022-12-18T10:27:39.209Z,30.05
2022-12-18T10:30:15.508Z,29.42
2022-12-18T10:32:43.604Z,28.50
2022-12-18T10:35:19.321Z,23.25
2022-12-18T10:38:05.731Z,27.25
2022-12-18T10:40:33.913Z,26.45
2022-12-18T10:43:14.120Z,25.50
2022-12-18T10:45:41.712Z,26.77
2022-12-18T10:48:20.244Z,18.13
2022-12-18T10:53:39.184Z,19.83
2022-12-18T10:56:07.705Z,22.08
2022-12-18T10:58:37.862Z,19.27
2022-12-18T11:01:08.460Z,30.20
2022-12-18T11:03:37.827Z,36.05
2022-12-18T11:06:08.665Z,30.75
2022-12-18T11:08:36.742Z,28.83
2022-12-18T11:11:04.835Z,23.67
2022-12-18T11:13:33.239Z,71.53
2022-12-18T11:16:03.341Z,67.40
2022-12-18T11:18:32.762Z,54.28
2022-12-18T11:21:07.587Z,109.65
2022-12-18T11:23:35.776Z,68.60
2022-12-18T11:26:05.093Z,73.25
2022-12-18T11:28:41.967Z,29.95
2022-12-18T11:31:28.487Z,39.00
2022-12-18T11:34:27.945Z,45.65
2022-12-18T11:36:50.880Z,34.75
2022-12-18T11:39:21.172Z,40.90
2022-12-18T11:42:13.212Z,25.50
2022-12-18T11:44:45.358Z,40.95
2022-12-18T11:47:20.868Z,15.63
2022-12-18T11:49:51.525Z,22.15
2022-12-18T11:52:21.019Z,18.80
2022-12-18T11:54:48.591Z,20.15
2022-12-18T11:57:19.739Z,18.63
2022-12-18T11:59:54.854Z,18.38
2022-12-18T12:02:41.048Z,23.35
2022-12-18T12:05:23.287Z,23.17
2022-12-18T12:07:56.233Z,19.73
2022-12-18T12:10:37.768Z,24.65
2022-12-18T12:13:18.965Z,27.42
2022-12-18T12:15:54.106Z,28.10
2022-12-18T12:18:31.124Z,23.63
2022-12-18T12:21:05.073Z,22.92
2022-12-18T12:23:37.476Z,28.75
2022-12-18T12:26:08.697Z,25.98
2022-12-18T12:28:50.274Z,26.35
2022-12-18T12:31:26.096Z,28.77
2022-12-18T12:33:58.916Z,26.45
2022-12-18T12:36:34.624Z,26.70
2022-12-18T12:39:05.355Z,30.38
2022-12-18T12:42:06.572Z,24.80
2022-12-18T12:44:38.005Z,23.70
2022-12-18T12:47:15.746Z,31.17
2022-12-18T12:49:48.448Z,24.58
2022-12-18T12:54:46.816Z,25.45
2022-12-18T12:57:19.717Z,25.05
2022-12-18T12:59:50.986Z,25.90
2022-12-18T13:02:25.588Z,25.77
2022-12-18T13:05:00.725Z,27.63
2022-12-18T13:07:34.635Z,26.55
2022-12-18T13:10:28.683Z,38.00
2022-12-18T13:12:57.046Z,26.80
2022-12-18T13:15:28.400Z,28.70
2022-12-18T13:18:07.003Z,28.17
2022-12-18T13:20:37.309Z,29.35
2022-12-18T13:23:22.170Z,27.92
2022-12-18T13:25:50.112Z,40.45
2022-12-18T13:28:18.407Z,32.70
2022-12-18T13:30:48.887Z,30.33
2022-12-18T13:36:38.446Z,34.30
2022-12-18T13:39:32.760Z,32.17
2022-12-18T13:42:59.632Z,32.25
2022-12-18T13:45:42.891Z,30.63
2022-12-18T13:50:51.856Z,28.88
2022-12-18T13:53:23.813Z,35.10
2022-12-18T13:58:20.862Z,35.28
2022-12-18T14:00:48.842Z,26.92
2022-12-18T14:03:22.707Z,28.95
2022-12-18T14:05:56.358Z,24.98
2022-12-18T14:08:27.014Z,30.92
2022-12-18T14:10:55.245Z,24.25
2022-12-18T14:13:27.017Z,27.92
2022-12-18T14:15:55.521Z,30.27
2022-12-18T14:18:25.659Z,28.80
2022-12-18T14:20:55.214Z,31.27
2022-12-18T14:23:33.125Z,25.88
2022-12-18T14:26:05.718Z,25.77
2022-12-18T14:28:34.065Z,26.77
2022-12-18T14:31:01.757Z,27.60
2022-12-18T14:33:29.804Z,29.45
2022-12-18T14:35:59.828Z,27.83
2022-12-18T14:38:33.553Z,25.67
2022-12-18T14:41:03.105Z,24.25
2022-12-18T14:43:33.088Z,24.23
2022-12-18T14:46:01.120Z,21.33
2022-12-18T14:48:37.417Z,29.92
2022-12-18T14:51:07.439Z,25.23
2022-12-18T14:53:39.473Z,19.05
2022-12-18T14:56:16.813Z,27.10
2022-12-18T14:58:49.339Z,25.65
2022-12-18T15:01:25.214Z,22.25
2022-12-18T15:03:53.899Z,21.10
2022-12-18T15:06:29.067Z,24.40
2022-12-18T15:08:58.215Z,19.50
2022-12-18T15:11:32.583Z,25.55
2022-12-18T15:14:00.579Z,22.45
2022-12-18T15:16:28.604Z,22.42
2022-12-18T15:18:56.263Z,18.25
2022-12-18T15:21:26.963Z,26.23
2022-12-18T15:23:55.227Z,21.55
2022-12-18T15:26:24.755Z,18.83
2022-12-18T15:28:53.755Z,24.55
2022-12-18T15:31:26.838Z,20.90
2022-12-18T15:34:13.300Z,22.73
2022-12-18T15:36:41.197Z,21.83
2022-12-18T15:39:08.772Z,19.40
2022-12-18T15:41:38.159Z,22.30
2022-12-18T15:44:22.672Z,22.10
2022-12-18T15:46:50.377Z,23.85
2022-12-18T15:49:18.016Z,29.88
2022-12-18T15:51:45.701Z,29.45
2022-12-18T15:54:17.587Z,156.27
2022-12-18T15:57:03.921Z,64.72
2022-12-18T15:59:31.545Z,43.72
2022-12-18T16:01:59.238Z,36.03
2022-12-18T16:04:27.461Z,26.27
2022-12-18T16:07:14.568Z,26.13
2022-12-18T16:09:42.869Z,23.42
2022-12-18T16:12:18.008Z,20.38
2022-12-18T16:14:45.818Z,20.63
2022-12-18T16:17:14.580Z,20.92
2022-12-18T16:19:45.360Z,19.20
2022-12-18T16:22:21.823Z,16.35
2022-12-18T16:24:49.909Z,18.60
2022-12-18T16:27:19.138Z,23.10
2022-12-18T16:29:46.814Z,23.55
2022-12-18T16:32:17.513Z,20.27
2022-12-18T16:34:45.584Z,23.25
2022-12-18T16:37:14.913Z,27.83
2022-12-18T16:39:43.125Z,19.27
2022-12-18T16:42:15.354Z,19.63
2022-12-18T16:44:44.911Z,20.52
2022-12-18T16:47:15.181Z,24.00
2022-12-18T16:49:43.225Z,22.85
2022-12-18T16:52:10.769Z,19.63
2022-12-18T16:54:38.428Z,23.80
2022-12-18T16:57:06.258Z,22.63
2022-12-18T16:59:36.816Z,23.13
2022-12-18T17:02:13.396Z,26.63
2022-12-18T17:04:41.083Z,19.58
2022-12-18T17:07:08.639Z,19.58
2022-12-18T17:09:36.444Z,24.13
2022-12-18T17:12:04.776Z,22.02
2022-12-18T17:14:34.139Z,19.85
2022-12-18T17:19:50.926Z,23.60
2022-12-18T17:22:18.580Z,23.25
2022-12-18T17:24:47.293Z,26.55
2022-12-18T17:27:14.917Z,25.70
2022-12-18T17:29:47.223Z,26.25
2022-12-18T17:34:43.154Z,35.58
2022-12-18T17:37:12.068Z,31.13
2022-12-18T17:39:39.999Z,28.90
2022-12-18T17:42:08.562Z,30.50
2022-12-18T17:44:38.313Z,26.58
2022-12-18T17:47:12.200Z,29.50
2022-12-18T17:49:39.853Z,35.80
2022-12-18T17:52:08.024Z,34.35
2022-12-18T17:54:39.481Z,28.33
2022-12-18T17:57:07.064Z,26.85
2022-12-18T17:59:34.668Z,30.38
2022-12-18T18:02:02.455Z,27.92
2022-12-18T18:04:30.611Z,32.17
2022-12-18T18:06:58.137Z,22.15
2022-12-18T18:09:25.798Z,31.02
2022-12-18T18:12:12.434Z,26.45
2022-12-18T18:14:40.267Z,35.75
2022-12-18T18:17:08.154Z,27.75
2022-12-18T18:19:35.757Z,29.15
2022-12-18T18:22:03.700Z,31.08
2022-12-18T18:24:31.505Z,29.70
2022-12-18T18:27:00.897Z,29.15
2022-12-18T18:29:30.327Z,28.60
2022-12-18T18:31:58.362Z,29.88
2022-12-18T18:34:27.710Z,29.33
2022-12-18T18:36:55.431Z,27.88
2022-12-18T18:39:23.012Z,25.27
2022-12-18T18:41:50.725Z,26.65
2022-12-18T18:44:21.520Z,28.40
2022-12-18T18:46:55.211Z,29.45
2022-12-18T18:49:24.105Z,57.35
2022-12-18T18:51:51.986Z,54.22
2022-12-18T18:54:20.823Z,33.65
2022-12-18T18:59:39.056Z,33.92
2022-12-18T19:02:06.833Z,31.75
2022-12-18T19:04:35.092Z,34.00
2022-12-18T19:07:03.181Z,29.20
2022-12-18T19:09:31.297Z,28.50
2022-12-18T19:12:13.025Z,25.63
2022-12-18T19:14:42.063Z,23.77
2022-12-18T19:17:10.383Z,20.95
2022-12-18T19:19:38.064Z,22.85
2022-12-18T19:22:05.932Z,19.27
2022-12-18T19:24:33.519Z,20.95
2022-12-18T19:27:01.069Z,23.80
2022-12-18T19:29:28.728Z,20.95
2022-12-18T19:31:57.648Z,24.55
2022-12-18T19:34:25.303Z,20.73
2022-12-18T19:36:57.939Z,20.48
2022-12-18T19:39:27.105Z,23.30
2022-12-18T19:41:54.652Z,28.00
2022-12-18T19:44:22.238Z,25.48
2022-12-18T19:46:51.696Z,24.60
2022-12-18T19:49:20.675Z,26.13
2022-12-18T19:51:50.423Z,25.67
2022-12-18T19:54:18.406Z,25.00
2022-12-18T19:56:46.561Z,24.70
2022-12-18T19:59:14.587Z,32.47
2022-12-18T20:01:42.421Z,24.17
2022-12-18T20:04:10.156Z,20.60
2022-12-18T20:06:48.366Z,24.08
2022-12-18T20:09:16.675Z,23.25
2022-12-18T20:11:45.806Z,21.42
2022-12-18T20:14:16.851Z,21.83
2022-12-18T20:16:50.649Z,20.45
2022-12-18T20:19:18.553Z,21.23
2022-12-18T20:21:47.824Z,22.45
2022-12-18T20:24:15.789Z,15.95
2022-12-18T20:26:43.440Z,11.88
2022-12-18T20:29:10.998Z,23.02
2022-12-18T20:31:38.656Z,20.52
2022-12-18T20:34:07.163Z,23.35
2022-12-18T20:36:36.423Z,17.70
2022-12-18T20:39:09.866Z,20.52
2022-12-18T20:41:39.348Z,19.25
2022-12-18T20:44:14.032Z,17.30
2022-12-18T20:46:52.946Z,24.77
2022-12-18T20:49:20.968Z,22.05
2022-12-18T20:51:51.227Z,21.77
2022-12-18T20:54:20.408Z,22.48
2022-12-18T20:56:48.086Z,21.17
2022-12-18T20:59:15.662Z,21.67
2022-12-18T21:01:48.163Z,23.23
2022-12-18T21:04:18.355Z,20.33
2022-12-18T21:06:51.304Z,22.95
2022-12-18T21:09:23.014Z,23.63
2022-12-18T21:12:08.222Z,21.63
2022-12-18T21:14:37.960Z,25.48
2022-12-18T21:17:06.339Z,22.63
2022-12-18T21:19:34.034Z,22.38
2022-12-18T21:22:01.699Z,19.25
2022-12-18T21:24:32.685Z,17.95
2022-12-18T21:27:00.729Z,22.98
2022-12-18T21:29:28.774Z,19.95
2022-12-18T21:31:56.610Z,20.20
2022-12-18T21:34:26.459Z,20.20
2022-12-18T21:36:54.721Z,16.58
2022-12-18T21:39:22.679Z,16.58
2022-12-18T21:42:09.740Z,17.83
2022-12-18T21:44:41.668Z,17.80
2022-12-18T21:47:21.330Z,15.77
2022-12-18T21:49:50.986Z,15.50
2022-12-18T21:52:18.534Z,17.10
2022-12-18T21:54:46.130Z,17.20
2022-12-18T21:57:15.439Z,18.98
2022-12-18T21:59:49.927Z,20.48
2022-12-18T22:02:20.106Z,18.15
2022-12-18T22:04:48.214Z,16.30
2022-12-18T22:07:18.549Z,22.17
2022-12-18T22:09:46.140Z,21.17
2022-12-18T22:12:34.975Z,19.17
2022-12-18T22:15:03.620Z,18.20
2022-12-18T22:17:31.167Z,19.85
2022-12-18T22:19:58.752Z,15.20
2022-12-18T22:22:26.315Z,15.98
2022-12-18T22:24:53.925Z,18.02
2022-12-18T22:27:22.844Z,17.42
2022-12-18T22:30:04.769Z,18.95
2022-12-18T22:32:33.123Z,16.60
2022-12-18T22:35:07.245Z,21.20
2022-12-18T22:37:38.293Z,19.15
2022-12-18T22:40:07.468Z,18.35
2022-12-18T22:42:37.469Z,15.10
2022-12-18T22:45:05.647Z,15.38
2022-12-18T22:47:33.228Z,20.45
2022-12-18T22:50:00.845Z,21.00
2022-12-18T22:52:28.454Z,22.00
2022-12-18T22:54:56.046Z,21.88
2022-12-18T22:57:23.858Z,23.75
2022-12-18T22:59:53.016Z,22.08
2022-12-18T23:02:20.908Z,28.85
2022-12-18T23:04:48.589Z,21.55
2022-12-18T23:07:16.498Z,23.45
2022-12-18T23:09:44.201Z,22.05
2022-12-18T23:12:16.175Z,37.78
2022-12-18T23:14:43.802Z,27.45
2022-12-18T23:17:12.717Z,61.83
2022-12-18T23:19:45.482Z,64.07
2022-12-18T23:22:16.288Z,39.72
2022-12-18T23:24:44.124Z,38.85
2022-12-18T23:27:12.270Z,20.52
2022-12-18T23:29:41.072Z,28.67
2022-12-18T23:32:09.169Z,34.25
2022-12-18T23:34:38.108Z,18.25
2022-12-18T23:37:05.683Z,32.10
2022-12-18T23:39:33.249Z,24.85
2022-12-18T23:42:01.462Z,27.27
2022-12-18T23:44:29.304Z,24.23
2022-12-18T23:46:56.934Z,37.25
2022-12-18T23:49:24.676Z,28.85
2022-12-18T23:51:54.677Z,35.17
2022-12-18T23:54:22.720Z,30.73
2022-12-18T23:57:00.924Z,20.30
2022-12-18T23:59:28.485Z,21.25
